sensor_id;sensor_type;location;lat;lon;timestamp;temperature;humidity
65036;DHT22;51603;49.300;8.880;2023-06-10T00:01:21;18.30;99.90
65036;DHT22;51603;49.300;8.880;2023-06-10T00:03:48;18.30;99.90
65036;DHT22;51603;49.300;8.880;2023-06-10T00:06:13;18.30;99.90
65036;DHT22;51603;49.300;8.880;2023-06-10T00:08:39;18.30;99.90
65036;DHT22;51603;49.300;8.880;2023-06-10T00:11:06;18.30;99.90
65036;DHT22;51603;49.300;8.880;2023-06-10T00:13:32;18.20;99.90
65036;DHT22;51603;49.300;8.880;2023-06-10T00:15:57;18.20;99.90
65036;DHT22;51603;49.300;8.880;2023-06-10T00:18:23;18.20;99.90
65036;DHT22;51603;49.300;8.880;2023-06-10T00:20:49;18.20;99.90
65036;DHT22;51603;49.300;8.880;2023-06-10T00:23:18;18.10;99.90
65036;DHT22;51603;49.300;8.880;2023-06-10T00:25:44;18.10;99.90
65036;DHT22;51603;49.300;8.880;2023-06-10T00:28:09;18.10;99.90
65036;DHT22;51603;49.300;8.880;2023-06-10T00:30:35;18.10;99.90
65036;DHT22;51603;49.300;8.880;2023-06-10T00:33:00;18.00;99.90
65036;DHT22;51603;49.300;8.880;2023-06-10T00:35:26;18.00;99.90
65036;DHT22;51603;49.300;8.880;2023-06-10T00:37:51;17.90;99.90
65036;DHT22;51603;49.300;8.880;2023-06-10T00:40:17;17.90;99.90
65036;DHT22;51603;49.300;8.880;2023-06-10T00:42:43;17.90;99.90
65036;DHT22;51603;49.300;8.880;2023-06-10T00:45:09;17.80;99.90
65036;DHT22;51603;49.300;8.880;2023-06-10T00:47:34;17.80;99.90
65036;DHT22;51603;49.300;8.880;2023-06-10T00:50:01;17.70;99.90
65036;DHT22;51603;49.300;8.880;2023-06-10T00:52:28;17.70;99.90
65036;DHT22;51603;49.300;8.880;2023-06-10T00:54:57;17.70;99.90
65036;DHT22;51603;49.300;8.880;2023-06-10T00:57:25;17.70;99.90
65036;DHT22;51603;49.300;8.880;2023-06-10T00:59:51;17.70;99.90
65036;DHT22;51603;49.300;8.880;2023-06-10T01:02:16;17.60;99.90
65036;DHT22;51603;49.300;8.880;2023-06-10T01:04:42;17.60;99.90
65036;DHT22;51603;49.300;8.880;2023-06-10T01:07:28;17.60;99.90
65036;DHT22;51603;49.300;8.880;2023-06-10T01:10:11;17.60;99.90
65036;DHT22;51603;49.300;8.880;2023-06-10T01:12:45;17.50;99.90
65036;DHT22;51603;49.300;8.880;2023-06-10T01:15:15;17.50;99.90
65036;DHT22;51603;49.300;8.880;2023-06-10T01:17:55;17.40;99.90
65036;DHT22;51603;49.300;8.880;2023-06-10T01:20:23;17.40;99.90
65036;DHT22;51603;49.300;8.880;2023-06-10T01:22:49;17.40;99.90
65036;DHT22;51603;49.300;8.880;2023-06-10T01:25:16;17.40;99.90
65036;DHT22;51603;49.300;8.880;2023-06-10T01:27:43;17.40;99.90
65036;DHT22;51603;49.300;8.880;2023-06-10T01:30:15;17.40;99.90
65036;DHT22;51603;49.300;8.880;2023-06-10T01:32:47;17.30;99.90
65036;DHT22;51603;49.300;8.880;2023-06-10T01:35:14;17.30;99.90
65036;DHT22;51603;49.300;8.880;2023-06-10T01:37:40;17.30;99.90
65036;DHT22;51603;49.300;8.880;2023-06-10T01:40:08;17.30;99.90
65036;DHT22;51603;49.300;8.880;2023-06-10T01:42:34;17.20;99.90
65036;DHT22;51603;49.300;8.880;2023-06-10T01:45:00;17.20;99.90
65036;DHT22;51603;49.300;8.880;2023-06-10T01:47:26;17.10;99.90
65036;DHT22;51603;49.300;8.880;2023-06-10T01:49:52;17.10;99.90
65036;DHT22;51603;49.300;8.880;2023-06-10T01:52:18;17.00;99.90
65036;DHT22;51603;49.300;8.880;2023-06-10T01:54:43;17.00;99.90
65036;DHT22;51603;49.300;8.880;2023-06-10T01:57:09;17.00;99.90
65036;DHT22;51603;49.300;8.880;2023-06-10T01:59:35;16.90;99.90
65036;DHT22;51603;49.300;8.880;2023-06-10T02:02:01;16.90;99.90
65036;DHT22;51603;49.300;8.880;2023-06-10T02:04:27;16.90;99.90
65036;DHT22;51603;49.300;8.880;2023-06-10T02:06:53;16.80;99.90
65036;DHT22;51603;49.300;8.880;2023-06-10T02:09:18;16.80;99.90
65036;DHT22;51603;49.300;8.880;2023-06-10T02:11:44;16.80;99.90
65036;DHT22;51603;49.300;8.880;2023-06-10T02:14:09;16.70;99.90
65036;DHT22;51603;49.300;8.880;2023-06-10T02:16:35;16.70;99.90
65036;DHT22;51603;49.300;8.880;2023-06-10T02:19:00;16.70;99.90
65036;DHT22;51603;49.300;8.880;2023-06-10T02:21:26;16.70;99.90
65036;DHT22;51603;49.300;8.880;2023-06-10T02:23:51;16.60;99.90
65036;DHT22;51603;49.300;8.880;2023-06-10T02:26:17;16.60;99.90
65036;DHT22;51603;49.300;8.880;2023-06-10T02:28:43;16.60;99.90
65036;DHT22;51603;49.300;8.880;2023-06-10T02:31:09;16.60;99.90
65036;DHT22;51603;49.300;8.880;2023-06-10T02:33:34;16.60;99.90
65036;DHT22;51603;49.300;8.880;2023-06-10T02:36:00;16.60;99.90
65036;DHT22;51603;49.300;8.880;2023-06-10T02:38:26;16.60;99.90
65036;DHT22;51603;49.300;8.880;2023-06-10T02:40:51;16.50;99.90
65036;DHT22;51603;49.300;8.880;2023-06-10T02:43:17;16.50;99.90
65036;DHT22;51603;49.300;8.880;2023-06-10T02:45:42;16.50;99.90
65036;DHT22;51603;49.300;8.880;2023-06-10T02:48:08;16.50;99.90
65036;DHT22;51603;49.300;8.880;2023-06-10T02:50:33;16.50;99.90
65036;DHT22;51603;49.300;8.880;2023-06-10T02:52:59;16.50;99.90
65036;DHT22;51603;49.300;8.880;2023-06-10T02:55:25;16.50;99.90
65036;DHT22;51603;49.300;8.880;2023-06-10T02:57:52;16.50;99.90
65036;DHT22;51603;49.300;8.880;2023-06-10T03:00:20;16.50;99.90
65036;DHT22;51603;49.300;8.880;2023-06-10T03:02:46;16.50;99.90
65036;DHT22;51603;49.300;8.880;2023-06-10T03:05:12;16.50;99.90
65036;DHT22;51603;49.300;8.880;2023-06-10T03:07:38;16.50;99.90
65036;DHT22;51603;49.300;8.880;2023-06-10T03:10:05;16.40;99.90
65036;DHT22;51603;49.300;8.880;2023-06-10T03:12:32;16.40;99.90
65036;DHT22;51603;49.300;8.880;2023-06-10T03:14:57;16.40;99.90
65036;DHT22;51603;49.300;8.880;2023-06-10T03:17:23;16.40;99.90
65036;DHT22;51603;49.300;8.880;2023-06-10T03:19:49;16.30;99.90
65036;DHT22;51603;49.300;8.880;2023-06-10T03:22:15;16.30;99.90
65036;DHT22;51603;49.300;8.880;2023-06-10T03:24:41;16.30;99.90
65036;DHT22;51603;49.300;8.880;2023-06-10T03:27:09;16.30;99.90
65036;DHT22;51603;49.300;8.880;2023-06-10T03:29:36;16.30;99.90
65036;DHT22;51603;49.300;8.880;2023-06-10T03:32:02;16.30;99.90
65036;DHT22;51603;49.300;8.880;2023-06-10T03:34:28;16.20;99.90
65036;DHT22;51603;49.300;8.880;2023-06-10T03:36:55;16.20;99.90
65036;DHT22;51603;49.300;8.880;2023-06-10T03:39:21;16.20;99.90
65036;DHT22;51603;49.300;8.880;2023-06-10T03:41:46;16.20;99.90
65036;DHT22;51603;49.300;8.880;2023-06-10T03:44:12;16.20;99.90
65036;DHT22;51603;49.300;8.880;2023-06-10T03:46:38;16.10;99.90
65036;DHT22;51603;49.300;8.880;2023-06-10T03:49:03;16.10;99.90
65036;DHT22;51603;49.300;8.880;2023-06-10T03:51:29;16.10;99.90
65036;DHT22;51603;49.300;8.880;2023-06-10T03:53:55;16.10;99.90
65036;DHT22;51603;49.300;8.880;2023-06-10T03:56:21;16.00;99.90
65036;DHT22;51603;49.300;8.880;2023-06-10T03:58:46;16.00;99.90
65036;DHT22;51603;49.300;8.880;2023-06-10T04:01:12;16.00;99.90
65036;DHT22;51603;49.300;8.880;2023-06-10T04:03:39;16.00;99.90
65036;DHT22;51603;49.300;8.880;2023-06-10T04:06:07;16.00;99.90
65036;DHT22;51603;49.300;8.880;2023-06-10T04:08:32;16.10;99.90
65036;DHT22;51603;49.300;8.880;2023-06-10T04:10:58;16.00;99.90
65036;DHT22;51603;49.300;8.880;2023-06-10T04:13:24;16.00;99.90
65036;DHT22;51603;49.300;8.880;2023-06-10T04:15:49;16.10;99.90
65036;DHT22;51603;49.300;8.880;2023-06-10T04:18:16;16.10;99.90
65036;DHT22;51603;49.300;8.880;2023-06-10T04:20:41;16.00;99.90
65036;DHT22;51603;49.300;8.880;2023-06-10T04:23:07;16.00;99.90
65036;DHT22;51603;49.300;8.880;2023-06-10T04:25:33;16.10;99.90
65036;DHT22;51603;49.300;8.880;2023-06-10T04:27:59;16.10;99.90
65036;DHT22;51603;49.300;8.880;2023-06-10T04:30:24;16.10;99.90
65036;DHT22;51603;49.300;8.880;2023-06-10T04:32:50;16.10;99.90
65036;DHT22;51603;49.300;8.880;2023-06-10T04:35:16;16.10;99.90
65036;DHT22;51603;49.300;8.880;2023-06-10T04:37:41;16.20;99.90
65036;DHT22;51603;49.300;8.880;2023-06-10T04:40:08;16.20;99.90
65036;DHT22;51603;49.300;8.880;2023-06-10T04:42:34;16.30;99.90
65036;DHT22;51603;49.300;8.880;2023-06-10T04:45:00;16.30;99.90
65036;DHT22;51603;49.300;8.880;2023-06-10T04:47:26;16.30;99.90
65036;DHT22;51603;49.300;8.880;2023-06-10T04:49:52;16.30;99.90
65036;DHT22;51603;49.300;8.880;2023-06-10T04:52:17;16.30;99.90
65036;DHT22;51603;49.300;8.880;2023-06-10T04:54:43;16.40;99.90
65036;DHT22;51603;49.300;8.880;2023-06-10T04:57:09;16.40;99.90
65036;DHT22;51603;49.300;8.880;2023-06-10T04:59:37;16.50;99.90
65036;DHT22;51603;49.300;8.880;2023-06-10T05:02:06;16.50;99.90
65036;DHT22;51603;49.300;8.880;2023-06-10T05:04:32;16.50;99.90
65036;DHT22;51603;49.300;8.880;2023-06-10T05:06:57;16.60;99.90
65036;DHT22;51603;49.300;8.880;2023-06-10T05:09:23;16.70;99.90
65036;DHT22;51603;49.300;8.880;2023-06-10T05:11:48;16.70;99.90
65036;DHT22;51603;49.300;8.880;2023-06-10T05:14:14;16.70;99.90
65036;DHT22;51603;49.300;8.880;2023-06-10T05:16:42;16.80;99.90
65036;DHT22;51603;49.300;8.880;2023-06-10T05:19:08;16.80;99.90
65036;DHT22;51603;49.300;8.880;2023-06-10T05:21:34;16.80;99.90
65036;DHT22;51603;49.300;8.880;2023-06-10T05:23:59;16.90;99.90
65036;DHT22;51603;49.300;8.880;2023-06-10T05:26:25;17.00;99.90
65036;DHT22;51603;49.300;8.880;2023-06-10T05:28:50;17.10;99.90
65036;DHT22;51603;49.300;8.880;2023-06-10T05:31:16;17.20;99.90
65036;DHT22;51603;49.300;8.880;2023-06-10T05:33:41;17.20;99.90
65036;DHT22;51603;49.300;8.880;2023-06-10T05:36:07;17.40;99.90
65036;DHT22;51603;49.300;8.880;2023-06-10T05:38:32;17.40;99.90
65036;DHT22;51603;49.300;8.880;2023-06-10T05:40:58;17.50;99.90
65036;DHT22;51603;49.300;8.880;2023-06-10T05:43:24;17.60;99.90
65036;DHT22;51603;49.300;8.880;2023-06-10T05:45:50;17.70;99.90
65036;DHT22;51603;49.300;8.880;2023-06-10T05:48:15;17.90;99.90
65036;DHT22;51603;49.300;8.880;2023-06-10T05:50:41;17.90;99.90
65036;DHT22;51603;49.300;8.880;2023-06-10T05:53:08;18.10;99.90
65036;DHT22;51603;49.300;8.880;2023-06-10T05:55:43;18.20;99.90
65036;DHT22;51603;49.300;8.880;2023-06-10T05:58:09;18.20;99.90
65036;DHT22;51603;49.300;8.880;2023-06-10T06:00:35;18.30;99.90
65036;DHT22;51603;49.300;8.880;2023-06-10T06:03:01;18.50;99.90
65036;DHT22;51603;49.300;8.880;2023-06-10T06:05:26;18.60;99.90
65036;DHT22;51603;49.300;8.880;2023-06-10T06:07:52;18.70;99.90
65036;DHT22;51603;49.300;8.880;2023-06-10T06:10:18;18.80;99.90
65036;DHT22;51603;49.300;8.880;2023-06-10T06:12:44;18.90;99.90
65036;DHT22;51603;49.300;8.880;2023-06-10T06:15:10;18.90;99.90
65036;DHT22;51603;49.300;8.880;2023-06-10T06:17:36;19.10;99.90
65036;DHT22;51603;49.300;8.880;2023-06-10T06:20:02;19.10;99.90
65036;DHT22;51603;49.300;8.880;2023-06-10T06:22:28;19.20;99.90
65036;DHT22;51603;49.300;8.880;2023-06-10T06:24:54;19.30;99.90
65036;DHT22;51603;49.300;8.880;2023-06-10T06:27:19;19.40;99.90
65036;DHT22;51603;49.300;8.880;2023-06-10T06:29:46;19.50;99.90
65036;DHT22;51603;49.300;8.880;2023-06-10T06:32:12;19.60;99.90
65036;DHT22;51603;49.300;8.880;2023-06-10T06:34:37;19.70;99.90
65036;DHT22;51603;49.300;8.880;2023-06-10T06:37:03;19.80;99.90
65036;DHT22;51603;49.300;8.880;2023-06-10T06:39:29;19.90;99.90
65036;DHT22;51603;49.300;8.880;2023-06-10T06:41:54;20.00;99.90
65036;DHT22;51603;49.300;8.880;2023-06-10T06:44:20;20.10;99.90
65036;DHT22;51603;49.300;8.880;2023-06-10T06:46:45;20.20;99.90
65036;DHT22;51603;49.300;8.880;2023-06-10T06:49:11;20.30;99.90
65036;DHT22;51603;49.300;8.880;2023-06-10T06:51:37;20.40;99.90
65036;DHT22;51603;49.300;8.880;2023-06-10T06:54:02;20.50;99.90
65036;DHT22;51603;49.300;8.880;2023-06-10T06:56:28;20.60;99.90
65036;DHT22;51603;49.300;8.880;2023-06-10T06:58:54;20.60;99.90
65036;DHT22;51603;49.300;8.880;2023-06-10T07:01:20;20.70;99.90
65036;DHT22;51603;49.300;8.880;2023-06-10T07:03:45;20.70;99.90
65036;DHT22;51603;49.300;8.880;2023-06-10T07:06:12;20.80;99.90
65036;DHT22;51603;49.300;8.880;2023-06-10T07:08:37;21.00;99.90
65036;DHT22;51603;49.300;8.880;2023-06-10T07:11:03;21.00;99.90
65036;DHT22;51603;49.300;8.880;2023-06-10T07:13:28;21.20;99.90
65036;DHT22;51603;49.300;8.880;2023-06-10T07:15:54;21.20;99.90
65036;DHT22;51603;49.300;8.880;2023-06-10T07:18:20;21.30;99.90
65036;DHT22;51603;49.300;8.880;2023-06-10T07:20:45;21.50;99.90
65036;DHT22;51603;49.300;8.880;2023-06-10T07:23:11;21.60;99.90
65036;DHT22;51603;49.300;8.880;2023-06-10T07:25:37;21.60;99.90
65036;DHT22;51603;49.300;8.880;2023-06-10T07:28:02;21.70;99.90
65036;DHT22;51603;49.300;8.880;2023-06-10T07:30:28;21.90;99.90
65036;DHT22;51603;49.300;8.880;2023-06-10T07:32:54;22.00;99.90
65036;DHT22;51603;49.300;8.880;2023-06-10T07:35:19;22.10;99.90
65036;DHT22;51603;49.300;8.880;2023-06-10T07:37:45;22.20;99.90
65036;DHT22;51603;49.300;8.880;2023-06-10T07:40:11;22.20;99.70
65036;DHT22;51603;49.300;8.880;2023-06-10T07:42:36;22.30;99.90
65036;DHT22;51603;49.300;8.880;2023-06-10T07:45:05;22.50;99.70
65036;DHT22;51603;49.300;8.880;2023-06-10T07:47:33;22.60;99.30
65036;DHT22;51603;49.300;8.880;2023-06-10T07:49:59;22.70;99.30
65036;DHT22;51603;49.300;8.880;2023-06-10T07:52:24;22.80;98.40
65036;DHT22;51603;49.300;8.880;2023-06-10T07:54:51;22.90;98.80
65036;DHT22;51603;49.300;8.880;2023-06-10T07:57:17;23.10;98.80
65036;DHT22;51603;49.300;8.880;2023-06-10T07:59:42;23.20;98.80
65036;DHT22;51603;49.300;8.880;2023-06-10T08:02:09;23.30;97.80
65036;DHT22;51603;49.300;8.880;2023-06-10T08:04:35;23.50;97.70
65036;DHT22;51603;49.300;8.880;2023-06-10T08:07:01;23.60;97.00
65036;DHT22;51603;49.300;8.880;2023-06-10T08:09:27;23.60;95.90
65036;DHT22;51603;49.300;8.880;2023-06-10T08:11:53;23.70;96.00
65036;DHT22;51603;49.300;8.880;2023-06-10T08:14:19;23.80;96.30
65036;DHT22;51603;49.300;8.880;2023-06-10T08:16:44;24.00;97.10
65036;DHT22;51603;49.300;8.880;2023-06-10T08:19:10;24.10;94.60
65036;DHT22;51603;49.300;8.880;2023-06-10T08:21:36;24.10;94.90
65036;DHT22;51603;49.300;8.880;2023-06-10T08:24:06;24.30;95.60
65036;DHT22;51603;49.300;8.880;2023-06-10T08:26:32;24.50;93.70
65036;DHT22;51603;49.300;8.880;2023-06-10T08:28:57;24.70;94.10
65036;DHT22;51603;49.300;8.880;2023-06-10T08:31:23;24.80;94.40
65036;DHT22;51603;49.300;8.880;2023-06-10T08:33:50;24.80;92.20
65036;DHT22;51603;49.300;8.880;2023-06-10T08:36:15;24.90;91.20
65036;DHT22;51603;49.300;8.880;2023-06-10T08:38:41;24.90;90.50
65036;DHT22;51603;49.300;8.880;2023-06-10T08:41:07;25.00;91.50
65036;DHT22;51603;49.300;8.880;2023-06-10T08:43:44;25.10;91.70
65036;DHT22;51603;49.300;8.880;2023-06-10T08:46:11;25.20;90.30
65036;DHT22;51603;49.300;8.880;2023-06-10T08:48:42;25.40;91.30
65036;DHT22;51603;49.300;8.880;2023-06-10T08:51:10;25.60;91.10
65036;DHT22;51603;49.300;8.880;2023-06-10T08:53:38;25.90;90.70
65036;DHT22;51603;49.300;8.880;2023-06-10T08:56:07;25.90;83.10
65036;DHT22;51603;49.300;8.880;2023-06-10T08:58:34;26.10;87.00
65036;DHT22;51603;49.300;8.880;2023-06-10T09:01:05;26.30;88.00
65036;DHT22;51603;49.300;8.880;2023-06-10T09:03:31;26.40;84.80
65036;DHT22;51603;49.300;8.880;2023-06-10T09:05:57;26.50;82.60
65036;DHT22;51603;49.300;8.880;2023-06-10T09:08:23;26.70;82.50
65036;DHT22;51603;49.300;8.880;2023-06-10T09:10:48;26.70;81.40
65036;DHT22;51603;49.300;8.880;2023-06-10T09:13:14;26.90;82.50
65036;DHT22;51603;49.300;8.880;2023-06-10T09:15:41;26.90;77.80
65036;DHT22;51603;49.300;8.880;2023-06-10T09:18:07;26.90;73.90
65036;DHT22;51603;49.300;8.880;2023-06-10T09:20:33;27.00;80.60
65036;DHT22;51603;49.300;8.880;2023-06-10T09:22:59;27.10;78.80
65036;DHT22;51603;49.300;8.880;2023-06-10T09:25:36;27.20;73.80
65036;DHT22;51603;49.300;8.880;2023-06-10T09:28:02;27.30;75.00
65036;DHT22;51603;49.300;8.880;2023-06-10T09:30:29;27.40;72.70
65036;DHT22;51603;49.300;8.880;2023-06-10T09:32:56;27.60;73.50
65036;DHT22;51603;49.300;8.880;2023-06-10T09:35:26;27.80;72.10
65036;DHT22;51603;49.300;8.880;2023-06-10T09:37:57;28.00;72.90
65036;DHT22;51603;49.300;8.880;2023-06-10T09:40:24;28.10;69.40
65036;DHT22;51603;49.300;8.880;2023-06-10T09:42:54;28.40;70.20
65036;DHT22;51603;49.300;8.880;2023-06-10T09:45:20;28.50;68.60
65036;DHT22;51603;49.300;8.880;2023-06-10T09:47:47;28.50;64.80
65036;DHT22;51603;49.300;8.880;2023-06-10T09:50:13;28.50;62.40
65036;DHT22;51603;49.300;8.880;2023-06-10T09:52:38;28.50;64.30
65036;DHT22;51603;49.300;8.880;2023-06-10T09:55:08;28.80;63.30
65036;DHT22;51603;49.300;8.880;2023-06-10T09:57:33;28.80;60.60
65036;DHT22;51603;49.300;8.880;2023-06-10T10:00:09;29.00;62.60
65036;DHT22;51603;49.300;8.880;2023-06-10T10:02:47;29.10;59.10
65036;DHT22;51603;49.300;8.880;2023-06-10T10:05:17;28.90;60.10
65036;DHT22;51603;49.300;8.880;2023-06-10T10:07:44;29.10;61.70
65036;DHT22;51603;49.300;8.880;2023-06-10T10:10:10;29.20;58.70
65036;DHT22;51603;49.300;8.880;2023-06-10T10:12:38;29.30;60.60
65036;DHT22;51603;49.300;8.880;2023-06-10T10:15:09;29.50;58.10
65036;DHT22;51603;49.300;8.880;2023-06-10T10:20:46;30.00;55.60
65036;DHT22;51603;49.300;8.880;2023-06-10T10:23:21;30.00;55.60
65036;DHT22;51603;49.300;8.880;2023-06-10T10:25:52;30.10;54.40
65036;DHT22;51603;49.300;8.880;2023-06-10T10:28:20;30.20;54.20
65036;DHT22;51603;49.300;8.880;2023-06-10T10:30:49;30.20;56.60
65036;DHT22;51603;49.300;8.880;2023-06-10T10:33:20;30.20;55.00
65036;DHT22;51603;49.300;8.880;2023-06-10T10:35:49;30.40;54.40
65036;DHT22;51603;49.300;8.880;2023-06-10T10:38:15;30.50;53.60
65036;DHT22;51603;49.300;8.880;2023-06-10T10:40:41;30.50;52.30
65036;DHT22;51603;49.300;8.880;2023-06-10T10:43:07;30.50;52.40
65036;DHT22;51603;49.300;8.880;2023-06-10T10:45:34;30.40;50.50
65036;DHT22;51603;49.300;8.880;2023-06-10T10:48:05;30.40;52.70
65036;DHT22;51603;49.300;8.880;2023-06-10T10:50:34;30.50;52.50
65036;DHT22;51603;49.300;8.880;2023-06-10T10:53:02;30.60;52.20
65036;DHT22;51603;49.300;8.880;2023-06-10T10:55:28;30.80;52.10
65036;DHT22;51603;49.300;8.880;2023-06-10T10:58:06;31.00;53.90
65036;DHT22;51603;49.300;8.880;2023-06-10T11:00:34;31.10;51.40
65036;DHT22;51603;49.300;8.880;2023-06-10T11:03:14;30.90;50.30
65036;DHT22;51603;49.300;8.880;2023-06-10T11:05:42;31.00;52.20
65036;DHT22;51603;49.300;8.880;2023-06-10T11:08:14;31.10;49.40
65036;DHT22;51603;49.300;8.880;2023-06-10T11:11:02;31.10;48.60
65036;DHT22;51603;49.300;8.880;2023-06-10T11:13:27;31.20;49.70
65036;DHT22;51603;49.300;8.880;2023-06-10T11:15:57;31.20;49.70
65036;DHT22;51603;49.300;8.880;2023-06-10T11:18:24;31.20;47.90
65036;DHT22;51603;49.300;8.880;2023-06-10T11:26:13;31.30;46.90
65036;DHT22;51603;49.300;8.880;2023-06-10T11:28:39;31.60;46.80
65036;DHT22;51603;49.300;8.880;2023-06-10T11:31:05;31.40;46.40
65036;DHT22;51603;49.300;8.880;2023-06-10T11:33:31;31.20;46.50
65036;DHT22;51603;49.300;8.880;2023-06-10T11:35:57;31.20;45.10
65036;DHT22;51603;49.300;8.880;2023-06-10T11:38:24;31.30;46.90
65036;DHT22;51603;49.300;8.880;2023-06-10T11:40:50;31.20;45.80
65036;DHT22;51603;49.300;8.880;2023-06-10T11:43:19;31.30;47.00
65036;DHT22;51603;49.300;8.880;2023-06-10T11:45:45;31.50;47.20
65036;DHT22;51603;49.300;8.880;2023-06-10T11:48:12;31.60;46.50
65036;DHT22;51603;49.300;8.880;2023-06-10T11:50:38;31.80;45.00
65036;DHT22;51603;49.300;8.880;2023-06-10T11:53:04;31.70;44.40
65036;DHT22;51603;49.300;8.880;2023-06-10T11:55:47;31.90;46.10
65036;DHT22;51603;49.300;8.880;2023-06-10T11:58:22;32.00;46.70
65036;DHT22;51603;49.300;8.880;2023-06-10T12:00:48;32.10;44.40
65036;DHT22;51603;49.300;8.880;2023-06-10T12:03:15;32.20;45.30
65036;DHT22;51603;49.300;8.880;2023-06-10T12:05:40;32.10;44.90
65036;DHT22;51603;49.300;8.880;2023-06-10T12:08:12;32.20;44.20
65036;DHT22;51603;49.300;8.880;2023-06-10T12:10:41;32.10;44.50
65036;DHT22;51603;49.300;8.880;2023-06-10T12:13:08;32.00;46.90
65036;DHT22;51603;49.300;8.880;2023-06-10T12:15:34;32.30;48.30
65036;DHT22;51603;49.300;8.880;2023-06-10T12:18:00;32.20;45.00
65036;DHT22;51603;49.300;8.880;2023-06-10T12:20:28;32.10;45.20
65036;DHT22;51603;49.300;8.880;2023-06-10T12:22:53;31.90;44.50
65036;DHT22;51603;49.300;8.880;2023-06-10T12:25:24;31.90;43.90
65036;DHT22;51603;49.300;8.880;2023-06-10T12:27:55;31.80;47.30
65036;DHT22;51603;49.300;8.880;2023-06-10T12:30:23;31.70;43.90
65036;DHT22;51603;49.300;8.880;2023-06-10T12:32:50;31.90;44.60
65036;DHT22;51603;49.300;8.880;2023-06-10T12:35:23;31.70;45.50
65036;DHT22;51603;49.300;8.880;2023-06-10T12:37:59;31.70;46.00
65036;DHT22;51603;49.300;8.880;2023-06-10T12:40:34;31.90;44.70
65036;DHT22;51603;49.300;8.880;2023-06-10T12:43:01;32.00;46.10
65036;DHT22;51603;49.300;8.880;2023-06-10T12:45:30;32.10;44.60
65036;DHT22;51603;49.300;8.880;2023-06-10T12:48:21;32.20;44.10
65036;DHT22;51603;49.300;8.880;2023-06-10T12:50:54;32.20;44.50
65036;DHT22;51603;49.300;8.880;2023-06-10T12:53:21;32.40;45.30
65036;DHT22;51603;49.300;8.880;2023-06-10T12:55:49;32.70;46.40
65036;DHT22;51603;49.300;8.880;2023-06-10T12:58:15;32.80;43.10
65036;DHT22;51603;49.300;8.880;2023-06-10T13:00:41;32.70;44.50
65036;DHT22;51603;49.300;8.880;2023-06-10T13:03:09;32.90;43.70
65036;DHT22;51603;49.300;8.880;2023-06-10T13:05:36;32.50;44.00
65036;DHT22;51603;49.300;8.880;2023-06-10T13:08:07;32.40;42.30
65036;DHT22;51603;49.300;8.880;2023-06-10T13:10:33;32.40;42.90
65036;DHT22;51603;49.300;8.880;2023-06-10T13:13:00;32.50;44.60
65036;DHT22;51603;49.300;8.880;2023-06-10T13:15:26;32.70;44.50
65036;DHT22;51603;49.300;8.880;2023-06-10T13:17:52;32.90;43.40
65036;DHT22;51603;49.300;8.880;2023-06-10T13:20:18;32.60;43.30
65036;DHT22;51603;49.300;8.880;2023-06-10T13:22:44;32.40;42.20
65036;DHT22;51603;49.300;8.880;2023-06-10T13:25:10;32.00;42.30
65036;DHT22;51603;49.300;8.880;2023-06-10T13:27:36;32.00;45.00
65036;DHT22;51603;49.300;8.880;2023-06-10T13:30:09;32.00;43.20
65036;DHT22;51603;49.300;8.880;2023-06-10T13:32:35;32.00;44.20
65036;DHT22;51603;49.300;8.880;2023-06-10T13:35:01;31.90;42.30
65036;DHT22;51603;49.300;8.880;2023-06-10T13:37:27;32.00;44.20
65036;DHT22;51603;49.300;8.880;2023-06-10T13:39:52;32.20;44.20
65036;DHT22;51603;49.300;8.880;2023-06-10T13:42:18;32.30;43.50
65036;DHT22;51603;49.300;8.880;2023-06-10T13:44:44;32.50;44.30
65036;DHT22;51603;49.300;8.880;2023-06-10T13:47:10;32.50;41.30
65036;DHT22;51603;49.300;8.880;2023-06-10T13:49:36;32.40;41.00
65036;DHT22;51603;49.300;8.880;2023-06-10T13:52:02;32.50;43.60
65036;DHT22;51603;49.300;8.880;2023-06-10T13:54:28;32.70;43.60
65036;DHT22;51603;49.300;8.880;2023-06-10T13:56:53;32.70;42.70
65036;DHT22;51603;49.300;8.880;2023-06-10T13:59:19;33.00;43.00
65036;DHT22;51603;49.300;8.880;2023-06-10T14:01:45;33.10;43.80
65036;DHT22;51603;49.300;8.880;2023-06-10T14:04:11;33.10;40.10
65036;DHT22;51603;49.300;8.880;2023-06-10T14:06:37;33.10;39.40
65036;DHT22;51603;49.300;8.880;2023-06-10T14:09:02;33.00;39.50
65036;DHT22;51603;49.300;8.880;2023-06-10T14:11:28;33.00;39.60
65036;DHT22;51603;49.300;8.880;2023-06-10T14:13:54;32.80;41.20
65036;DHT22;51603;49.300;8.880;2023-06-10T14:16:23;33.10;42.50
65036;DHT22;51603;49.300;8.880;2023-06-10T14:18:49;33.20;39.50
65036;DHT22;51603;49.300;8.880;2023-06-10T14:21:16;33.40;40.60
65036;DHT22;51603;49.300;8.880;2023-06-10T14:23:42;33.40;38.80
65036;DHT22;51603;49.300;8.880;2023-06-10T14:26:08;33.50;39.60
65036;DHT22;51603;49.300;8.880;2023-06-10T14:28:34;33.10;37.40
65036;DHT22;51603;49.300;8.880;2023-06-10T14:31:00;33.30;40.70
65036;DHT22;51603;49.300;8.880;2023-06-10T14:33:25;33.40;37.80
65036;DHT22;51603;49.300;8.880;2023-06-10T14:35:51;33.30;39.30
65036;DHT22;51603;49.300;8.880;2023-06-10T14:38:16;33.30;38.00
65036;DHT22;51603;49.300;8.880;2023-06-10T14:40:42;33.30;39.20
65036;DHT22;51603;49.300;8.880;2023-06-10T14:43:08;33.40;41.40
65036;DHT22;51603;49.300;8.880;2023-06-10T14:45:36;33.50;39.70
65036;DHT22;51603;49.300;8.880;2023-06-10T14:48:03;33.60;38.20
65036;DHT22;51603;49.300;8.880;2023-06-10T14:50:29;33.50;39.60
65036;DHT22;51603;49.300;8.880;2023-06-10T14:52:54;33.60;39.90
65036;DHT22;51603;49.300;8.880;2023-06-10T14:55:20;33.50;39.00
65036;DHT22;51603;49.300;8.880;2023-06-10T14:57:45;33.40;38.40
65036;DHT22;51603;49.300;8.880;2023-06-10T15:00:12;33.40;39.70
65036;DHT22;51603;49.300;8.880;2023-06-10T15:02:40;33.60;39.20
65036;DHT22;51603;49.300;8.880;2023-06-10T15:05:06;33.40;39.40
65036;DHT22;51603;49.300;8.880;2023-06-10T15:07:32;33.40;40.20
65036;DHT22;51603;49.300;8.880;2023-06-10T15:09:57;33.50;40.20
65036;DHT22;51603;49.300;8.880;2023-06-10T15:12:23;33.60;40.10
65036;DHT22;51603;49.300;8.880;2023-06-10T15:14:50;33.50;38.90
65036;DHT22;51603;49.300;8.880;2023-06-10T15:17:15;33.40;38.30
65036;DHT22;51603;49.300;8.880;2023-06-10T15:19:41;33.40;39.70
65036;DHT22;51603;49.300;8.880;2023-06-10T15:22:06;33.30;39.10
65036;DHT22;51603;49.300;8.880;2023-06-10T15:24:32;33.30;39.30
65036;DHT22;51603;49.300;8.880;2023-06-10T15:26:58;33.40;40.60
65036;DHT22;51603;49.300;8.880;2023-06-10T15:29:23;33.40;38.50
65036;DHT22;51603;49.300;8.880;2023-06-10T15:31:49;33.20;37.80
65036;DHT22;51603;49.300;8.880;2023-06-10T15:34:14;33.20;38.60
65036;DHT22;51603;49.300;8.880;2023-06-10T15:36:40;33.20;41.00